ADDS METAR Data INFO
IDs: Format: Raw Decoded Include TAF

Data at: 1348 UTC 21 Nov 2017

METAR for:KTVY (Tooele Valley Arpt, UT, US)
Text:KTVY 211335Z AUTO 18004KT 7SM SCT055 BKN075 OVC090 03/02 A3027 RMK AO2
Temperature: 3.0°C ( 37°F)
Dewpoint: 2.0°C ( 36°F) [RH = 93%]
Pressure (altimeter):30.27 inches Hg (1025.1 mb)
Winds:from the S (180 degrees) at 5 MPH (4 knots; 2.1 m/s)
Visibility: 7 sm ( 11 km)
Ceiling:7500 feet AGL
Clouds: scattered clouds at 5500 feet AGL, broken clouds at 7500 feet AGL, overcast cloud deck at 9000 feet AGL
QC Flag:automated observation with no human augmentation
Text:KTVY 211315Z AUTO 00000KT 7SM BKN075 OVC090 03/02 A3027 RMK AO2
Temperature: 3.0°C ( 37°F)
Dewpoint: 2.0°C ( 36°F) [RH = 93%]
Pressure (altimeter):30.27 inches Hg (1025.1 mb)
Winds:calm
Visibility: 7 sm ( 11 km)
Ceiling:7500 feet AGL
Clouds: broken clouds at 7500 feet AGL, overcast cloud deck at 9000 feet AGL
QC Flag:automated observation with no human augmentation
Text:KTVY 211255Z AUTO 00000KT 7SM OVC075 04/02 A3027 RMK AO2
Temperature: 4.0°C ( 39°F)
Dewpoint: 2.0°C ( 36°F) [RH = 87%]
Pressure (altimeter):30.27 inches Hg (1025.1 mb)
Winds:calm
Visibility: 7 sm ( 11 km)
Ceiling:7500 feet AGL
Clouds: overcast cloud deck at 7500 feet AGL
QC Flag:automated observation with no human augmentation
Text:KTVY 211235Z AUTO 00000KT 7SM BKN075 OVC120 04/02 A3026 RMK AO2
Temperature: 4.0°C ( 39°F)
Dewpoint: 2.0°C ( 36°F) [RH = 87%]
Pressure (altimeter):30.26 inches Hg (1024.8 mb)
Winds:calm
Visibility: 7 sm ( 11 km)
Ceiling:7500 feet AGL
Clouds: broken clouds at 7500 feet AGL, overcast cloud deck at 12000 feet AGL
QC Flag:automated observation with no human augmentation
Text:KTVY 211215Z AUTO 16004KT 7SM SCT075 BKN120 04/02 A3025 RMK AO2
Temperature: 4.0°C ( 39°F)
Dewpoint: 2.0°C ( 36°F) [RH = 87%]
Pressure (altimeter):30.25 inches Hg (1024.5 mb)
Winds:from the SSE (160 degrees) at 5 MPH (4 knots; 2.1 m/s)
Visibility: 7 sm ( 11 km)
Ceiling:12000 feet AGL
Clouds: scattered clouds at 7500 feet AGL, broken clouds at 12000 feet AGL
QC Flag:automated observation with no human augmentation
Text:KTVY 211155Z AUTO 00000KT 7SM SCT065 BKN120 04/02 A3025 RMK AO2
Temperature: 4.0°C ( 39°F)
Dewpoint: 2.0°C ( 36°F) [RH = 87%]
Pressure (altimeter):30.25 inches Hg (1024.5 mb)
Winds:calm
Visibility: 7 sm ( 11 km)
Ceiling:12000 feet AGL
Clouds: scattered clouds at 6500 feet AGL, broken clouds at 12000 feet AGL
QC Flag:automated observation with no human augmentation
Text:KTVY 211135Z AUTO 08003KT 7SM SCT065 SCT120 04/02 A3024 RMK AO2
Temperature: 4.0°C ( 39°F)
Dewpoint: 2.0°C ( 36°F) [RH = 87%]
Pressure (altimeter):30.24 inches Hg (1024.1 mb)
Winds:from the E (80 degrees) at 3 MPH (3 knots; 1.5 m/s)
Visibility: 7 sm ( 11 km)
Ceiling:at least 12,000 feet AGL
Clouds: scattered clouds at 6500 feet AGL, scattered clouds at 12000 feet AGL
QC Flag:automated observation with no human augmentation
Text:KTVY 211115Z AUTO 00000KT 10SM SCT085 BKN120 04/02 A3024 RMK AO2
Temperature: 4.0°C ( 39°F)
Dewpoint: 2.0°C ( 36°F) [RH = 87%]
Pressure (altimeter):30.24 inches Hg (1024.1 mb)
Winds:calm
Visibility:10 or more sm (16+ km)
Ceiling:12000 feet AGL
Clouds: scattered clouds at 8500 feet AGL, broken clouds at 12000 feet AGL
QC Flag:automated observation with no human augmentation
Text:KTVY 211055Z AUTO 17003KT 10SM SCT085 BKN120 04/02 A3023 RMK AO2
Temperature: 4.0°C ( 39°F)
Dewpoint: 2.0°C ( 36°F) [RH = 87%]
Pressure (altimeter):30.23 inches Hg (1023.8 mb)
Winds:from the S (170 degrees) at 3 MPH (3 knots; 1.5 m/s)
Visibility:10 or more sm (16+ km)
Ceiling:12000 feet AGL
Clouds: scattered clouds at 8500 feet AGL, broken clouds at 12000 feet AGL
QC Flag:automated observation with no human augmentation
Text:KTVY 211035Z AUTO 19003KT 7SM SCT085 05/02 A3024 RMK AO2
Temperature: 5.0°C ( 41°F)
Dewpoint: 2.0°C ( 36°F) [RH = 81%]
Pressure (altimeter):30.24 inches Hg (1024.1 mb)
Winds:from the S (190 degrees) at 3 MPH (3 knots; 1.5 m/s)
Visibility: 7 sm ( 11 km)
Ceiling:at least 12,000 feet AGL
Clouds: scattered clouds at 8500 feet AGL
QC Flag:automated observation with no human augmentation
Text:KTVY 211015Z AUTO 00000KT 7SM SCT075 OVC085 05/03 A3024 RMK AO2
Temperature: 5.0°C ( 41°F)
Dewpoint: 3.0°C ( 37°F) [RH = 87%]
Pressure (altimeter):30.24 inches Hg (1024.1 mb)
Winds:calm
Visibility: 7 sm ( 11 km)
Ceiling:8500 feet AGL
Clouds: scattered clouds at 7500 feet AGL, overcast cloud deck at 8500 feet AGL
QC Flag:automated observation with no human augmentation
Text:KTVY 210955Z AUTO 19005KT 7SM BKN075 OVC085 04/02 A3023 RMK AO2
Temperature: 4.0°C ( 39°F)
Dewpoint: 2.0°C ( 36°F) [RH = 87%]
Pressure (altimeter):30.23 inches Hg (1023.8 mb)
Winds:from the S (190 degrees) at 6 MPH (5 knots; 2.6 m/s)
Visibility: 7 sm ( 11 km)
Ceiling:7500 feet AGL
Clouds: broken clouds at 7500 feet AGL, overcast cloud deck at 8500 feet AGL
QC Flag:automated observation with no human augmentation
Text:KTVY 210935Z AUTO 00000KT 7SM OVC065 04/02 A3023 RMK AO2
Temperature: 4.0°C ( 39°F)
Dewpoint: 2.0°C ( 36°F) [RH = 87%]
Pressure (altimeter):30.23 inches Hg (1023.8 mb)
Winds:calm
Visibility: 7 sm ( 11 km)
Ceiling:6500 feet AGL
Clouds: overcast cloud deck at 6500 feet AGL
QC Flag:automated observation with no human augmentation
Text:KTVY 210915Z AUTO 00000KT 7SM BKN065 OVC080 04/02 A3022 RMK AO2
Temperature: 4.0°C ( 39°F)
Dewpoint: 2.0°C ( 36°F) [RH = 87%]
Pressure (altimeter):30.22 inches Hg (1023.5 mb)
Winds:calm
Visibility: 7 sm ( 11 km)
Ceiling:6500 feet AGL
Clouds: broken clouds at 6500 feet AGL, overcast cloud deck at 8000 feet AGL
QC Flag:automated observation with no human augmentation
Text:KTVY 210855Z AUTO 30004KT 7SM OVC065 05/02 A3020 RMK AO2
Temperature: 5.0°C ( 41°F)
Dewpoint: 2.0°C ( 36°F) [RH = 81%]
Pressure (altimeter):30.20 inches Hg (1022.8 mb)
Winds:from the WNW (300 degrees) at 5 MPH (4 knots; 2.1 m/s)
Visibility: 7 sm ( 11 km)
Ceiling:6500 feet AGL
Clouds: overcast cloud deck at 6500 feet AGL
QC Flag:automated observation with no human augmentation